Time;durP1;ratioP1;P1;durP2;ratioP2;P2;SDS_P1;SDS_P2;PMS_P1;PMS_P2;Temp;Humidity;BMP_temperature;BMP_pressure;BME280_temperature;BME280_humidity;BME280_pressure;Samples;Min_cycle;Max_cycle;Signal;HPM_P1;HPM_P2
2022/11/30 00:01:49;;;;;;;62.88;31.50;;;;;;;;;;5018471;28;20047;-72
2022/11/30 00:04:15;;;;;;;71.22;32.53;;;;;;;;;;5022183;28;20041;-73
2022/11/30 00:06:42;;;;;;;60.00;30.88;;;;;;;;;;5034661;28;20034;-72
2022/11/30 00:09:08;;;;;;;76.65;33.28;;;;;;;;;;5020347;28;20048;-72
2022/11/30 00:11:34;;;;;;;68.97;31.60;;;;;;;;;;5019000;28;20037;-72
2022/11/30 00:14:00;;;;;;;71.63;32.95;;;;;;;;;;5014773;28;20133;-72
2022/11/30 00:16:26;;;;;;;74.60;32.72;;;;;;;;;;5020246;28;20037;-72
2022/11/30 00:18:53;;;;;;;69.43;32.60;;;;;;;;;;5035022;28;20130;-72
2022/11/30 00:21:19;;;;;;;65.45;31.15;;;;;;;;;;5020426;28;20449;-72
2022/11/30 00:23:46;;;;;;;68.55;32.05;;;;;;;;;;5021835;28;22038;-72
2022/11/30 00:26:17;;;;;;;73.85;33.40;;;;;;;;;;5000025;28;20037;-72
2022/11/30 00:28:44;;;;;;;85.88;34.97;;;;;;;;;;5018871;28;20136;-72
2022/11/30 00:31:12;;;;;;;62.75;31.13;;;;;;;;;;5020315;28;20484;-71
2022/11/30 00:33:38;;;;;;;88.85;33.50;;;;;;;;;;5022493;28;20530;-72
2022/11/30 00:36:06;;;;;;;76.18;32.38;;;;;;;;;;5016086;28;20022;-72
2022/11/30 00:38:32;;;;;;;64.68;32.20;;;;;;;;;;5017272;28;20091;-72
2022/11/30 00:40:59;;;;;;;72.20;32.25;;;;;;;;;;5022494;28;20030;-73
2022/11/30 00:43:25;;;;;;;75.38;32.95;;;;;;;;;;5013322;28;20133;-73
2022/11/30 00:45:53;;;;;;;77.13;33.33;;;;;;;;;;5019626;28;20155;-73
2022/11/30 00:48:19;;;;;;;76.05;33.65;;;;;;;;;;4999052;28;20057;-73
2022/11/30 00:50:45;;;;;;;80.38;34.08;;;;;;;;;;5022508;28;20057;-73
2022/11/30 00:53:11;;;;;;;84.28;35.95;;;;;;;;;;5024108;28;20033;-73
2022/11/30 00:55:38;;;;;;;84.75;35.72;;;;;;;;;;5015161;28;20112;-73
2022/11/30 00:58:05;;;;;;;93.22;36.80;;;;;;;;;;5017433;28;20041;-73
2022/11/30 01:00:32;;;;;;;85.90;36.40;;;;;;;;;;5020683;28;20033;-73
2022/11/30 01:02:58;;;;;;;98.10;37.25;;;;;;;;;;5023534;28;20501;-73
2022/11/30 01:05:24;;;;;;;92.72;36.25;;;;;;;;;;5015734;28;20498;-73
2022/11/30 01:07:50;;;;;;;89.13;35.83;;;;;;;;;;5008017;28;20038;-72
2022/11/30 01:10:17;;;;;;;96.32;38.30;;;;;;;;;;5019835;28;20126;-73
2022/11/30 01:12:43;;;;;;;94.25;37.67;;;;;;;;;;5022053;28;20026;-72
2022/11/30 01:15:10;;;;;;;100.32;39.15;;;;;;;;;;5014362;28;20026;-72
2022/11/30 01:17:36;;;;;;;95.05;39.63;;;;;;;;;;5020884;28;20018;-72
2022/11/30 01:20:03;;;;;;;102.55;41.58;;;;;;;;;;5020815;28;20093;-72
2022/11/30 01:22:29;;;;;;;101.43;40.08;;;;;;;;;;5023481;28;20095;-72
2022/11/30 01:24:55;;;;;;;103.15;41.42;;;;;;;;;;5019768;28;20120;-71
2022/11/30 01:27:21;;;;;;;107.00;42.85;;;;;;;;;;5025511;28;20382;-71
2022/11/30 01:29:47;;;;;;;129.63;42.70;;;;;;;;;;5017774;28;20341;-71
2022/11/30 01:32:13;;;;;;;105.25;41.50;;;;;;;;;;5025765;28;20026;-71
2022/11/30 01:34:39;;;;;;;104.72;39.72;;;;;;;;;;5037226;28;20375;-72
2022/11/30 01:37:07;;;;;;;111.70;40.28;;;;;;;;;;5007042;28;20419;-72
2022/11/30 01:39:33;;;;;;;101.45;39.35;;;;;;;;;;5024122;28;20567;-73
2022/11/30 01:41:59;;;;;;;98.72;39.10;;;;;;;;;;5022365;28;20089;-72
2022/11/30 01:44:26;;;;;;;108.85;40.33;;;;;;;;;;5025280;28;20079;-72
2022/11/30 01:46:55;;;;;;;98.82;36.95;;;;;;;;;;5014489;28;20532;-72
2022/11/30 01:49:21;;;;;;;113.60;41.17;;;;;;;;;;5022396;28;20026;-71
2022/11/30 01:51:51;;;;;;;123.32;42.10;;;;;;;;;;5022165;28;20050;-72
2022/11/30 01:54:25;;;;;;;116.80;42.55;;;;;;;;;;5038479;28;20393;-72
2022/11/30 01:56:55;;;;;;;110.20;41.25;;;;;;;;;;5022529;28;20263;-73
2022/11/30 01:59:21;;;;;;;117.72;41.92;;;;;;;;;;5024349;28;20041;-73
2022/11/30 02:01:48;;;;;;;118.05;40.30;;;;;;;;;;5022041;28;20056;-72
2022/11/30 02:04:21;;;;;;;124.68;41.63;;;;;;;;;;5006245;28;20166;-73
2022/11/30 02:06:47;;;;;;;114.00;40.85;;;;;;;;;;5024740;28;20116;-73
2022/11/30 02:09:14;;;;;;;116.13;39.50;;;;;;;;;;5021293;28;20052;-72
2022/11/30 02:11:40;;;;;;;97.45;38.00;;;;;;;;;;5022990;28;20417;-72
2022/11/30 02:14:25;;;;;;;124.82;40.85;;;;;;;;;;5007150;28;20025;-72
2022/11/30 02:17:10;;;;;;;123.55;40.65;;;;;;;;;;5019326;28;20156;-73
2022/11/30 02:19:39;;;;;;;120.90;38.63;;;;;;;;;;5007919;28;20056;-73
2022/11/30 02:22:09;;;;;;;105.43;37.75;;;;;;;;;;5022265;28;20013;-71
2022/11/30 02:24:35;;;;;;;104.20;37.63;;;;;;;;;;5021398;28;20120;-72
2022/11/30 02:27:20;;;;;;;91.65;38.42;;;;;;;;;;5018382;28;20029;-73
2022/11/30 02:29:51;;;;;;;109.22;38.50;;;;;;;;;;5021127;28;20034;-72
2022/11/30 02:32:17;;;;;;;126.00;40.38;;;;;;;;;;5005510;28;20096;-72
2022/11/30 02:34:45;;;;;;;104.22;36.25;;;;;;;;;;5022840;28;20029;-72
2022/11/30 02:37:13;;;;;;;113.95;37.75;;;;;;;;;;5007848;28;20037;-71
2022/11/30 02:39:39;;;;;;;111.80;37.67;;;;;;;;;;5023355;28;20112;-72
2022/11/30 02:42:10;;;;;;;96.75;37.35;;;;;;;;;;5038867;28;20037;-73
2022/11/30 02:44:36;;;;;;;125.07;38.70;;;;;;;;;;5024740;28;20537;-73
2022/11/30 02:47:09;;;;;;;90.47;33.90;;;;;;;;;;5024418;28;20447;-73
2022/11/30 02:49:40;;;;;;;130.75;38.65;;;;;;;;;;5020521;28;20048;-73
2022/11/30 02:52:07;;;;;;;156.32;41.30;;;;;;;;;;5022850;28;20032;-72
2022/11/30 02:54:34;;;;;;;121.75;39.97;;;;;;;;;;5027023;28;20215;-73
2022/11/30 02:57:00;;;;;;;126.50;39.22;;;;;;;;;;5005272;28;20041;-73
2022/11/30 02:59:26;;;;;;;115.57;39.03;;;;;;;;;;5019449;28;21942;-72
2022/11/30 03:01:52;;;;;;;126.38;41.05;;;;;;;;;;5020733;28;20051;-72
2022/11/30 03:04:18;;;;;;;129.23;41.33;;;;;;;;;;5018837;28;20045;-73
2022/11/30 03:06:44;;;;;;;164.05;42.45;;;;;;;;;;5024532;28;20048;-73
2022/11/30 03:09:10;;;;;;;143.50;41.42;;;;;;;;;;5003279;28;20608;-73
2022/11/30 03:11:36;;;;;;;138.57;42.97;;;;;;;;;;5021886;28;20029;-73
2022/11/30 03:14:03;;;;;;;143.20;42.92;;;;;;;;;;5017596;28;20021;-73
2022/11/30 03:16:29;;;;;;;125.60;41.47;;;;;;;;;;5023473;28;20068;-73
2022/11/30 03:18:56;;;;;;;131.35;40.78;;;;;;;;;;5006949;28;20040;-73
2022/11/30 03:21:22;;;;;;;143.65;44.78;;;;;;;;;;5006503;28;20052;-73
2022/11/30 03:23:48;;;;;;;147.82;44.00;;;;;;;;;;5020309;28;20056;-73
2022/11/30 03:26:15;;;;;;;127.55;42.38;;;;;;;;;;5019449;28;20026;-72
2022/11/30 03:28:41;;;;;;;151.95;44.92;;;;;;;;;;5022225;28;20048;-72
2022/11/30 03:31:10;;;;;;;146.60;45.08;;;;;;;;;;5020195;28;20392;-72
2022/11/30 03:33:36;;;;;;;145.95;44.47;;;;;;;;;;5022660;28;20048;-72
2022/11/30 03:36:03;;;;;;;147.82;45.10;;;;;;;;;;5006519;28;20034;-72
2022/11/30 03:38:29;;;;;;;147.15;45.63;;;;;;;;;;5021275;28;20029;-73
2022/11/30 03:41:06;;;;;;;137.73;45.00;;;;;;;;;;5021145;28;20017;-73
2022/11/30 03:43:32;;;;;;;145.88;45.47;;;;;;;;;;5022416;28;20084;-72
2022/11/30 03:45:59;;;;;;;129.73;42.63;;;;;;;;;;5019540;28;20017;-73
2022/11/30 03:48:25;;;;;;;129.02;43.25;;;;;;;;;;5015999;28;20120;-73
2022/11/30 03:50:51;;;;;;;131.80;41.83;;;;;;;;;;5035934;28;20037;-72
2022/11/30 03:53:17;;;;;;;146.30;45.35;;;;;;;;;;5017953;28;20518;-73
2022/11/30 03:55:44;;;;;;;147.00;44.22;;;;;;;;;;5018133;28;20072;-73
2022/11/30 03:58:10;;;;;;;148.07;46.10;;;;;;;;;;5024809;28;20031;-72
2022/11/30 04:00:36;;;;;;;143.82;45.67;;;;;;;;;;5022051;28;20044;-72
2022/11/30 04:03:02;;;;;;;154.75;46.10;;;;;;;;;;5023993;28;20034;-73
2022/11/30 04:05:28;;;;;;;159.15;45.38;;;;;;;;;;5022631;28;20030;-73
2022/11/30 04:07:55;;;;;;;163.48;48.65;;;;;;;;;;5020895;28;20597;-72
2022/11/30 04:10:23;;;;;;;152.90;44.60;;;;;;;;;;5018798;28;20206;-72
2022/11/30 04:12:49;;;;;;;137.75;45.50;;;;;;;;;;5037172;28;20036;-73
2022/11/30 04:15:15;;;;;;;143.07;42.95;;;;;;;;;;5003312;28;20091;-73
2022/11/30 04:17:41;;;;;;;140.55;42.30;;;;;;;;;;5019429;28;20620;-72
2022/11/30 04:20:08;;;;;;;133.82;42.63;;;;;;;;;;5021468;28;20030;-72
2022/11/30 04:22:34;;;;;;;139.23;41.42;;;;;;;;;;5034494;28;20037;-72
2022/11/30 04:25:00;;;;;;;126.15;43.58;;;;;;;;;;5016558;28;20041;-72
2022/11/30 04:27:28;;;;;;;142.57;42.88;;;;;;;;;;5020013;28;20364;-72
2022/11/30 04:29:54;;;;;;;145.70;42.72;;;;;;;;;;5018094;28;20383;-72
2022/11/30 04:32:20;;;;;;;146.15;42.28;;;;;;;;;;5022279;28;20025;-71
2022/11/30 04:34:46;;;;;;;144.75;45.08;;;;;;;;;;5024171;28;20029;-71
2022/11/30 04:37:12;;;;;;;162.73;44.45;;;;;;;;;;5019707;28;20029;-71
2022/11/30 04:39:39;;;;;;;129.60;41.97;;;;;;;;;;5018998;28;20038;-71
2022/11/30 04:42:05;;;;;;;160.68;47.00;;;;;;;;;;5020814;28;20168;-72
2022/11/30 04:44:31;;;;;;;160.90;44.78;;;;;;;;;;5020034;28;20052;-71
2022/11/30 04:46:57;;;;;;;152.48;43.05;;;;;;;;;;5029764;28;20607;-71
2022/11/30 04:49:23;;;;;;;134.10;42.25;;;;;;;;;;5017178;28;20029;-71
2022/11/30 04:51:49;;;;;;;158.27;46.80;;;;;;;;;;5018845;28;20397;-71
2022/11/30 04:54:16;;;;;;;167.05;45.55;;;;;;;;;;5021249;28;20470;-72
2022/11/30 04:56:42;;;;;;;138.50;41.75;;;;;;;;;;5021593;28;20057;-72
2022/11/30 04:59:08;;;;;;;153.77;46.67;;;;;;;;;;5018355;28;20428;-72
2022/11/30 05:01:34;;;;;;;166.68;46.97;;;;;;;;;;5016992;28;20502;-72
2022/11/30 05:04:00;;;;;;;194.18;45.63;;;;;;;;;;5026367;28;20055;-71
2022/11/30 05:06:26;;;;;;;154.15;44.17;;;;;;;;;;5014592;28;20038;-71
2022/11/30 05:08:52;;;;;;;180.00;46.70;;;;;;;;;;5035083;28;20037;-74
2022/11/30 05:11:18;;;;;;;164.48;44.53;;;;;;;;;;5023796;28;20025;-73
2022/11/30 05:13:44;;;;;;;157.15;47.33;;;;;;;;;;5027659;28;20089;-71
2022/11/30 05:16:10;;;;;;;165.07;46.00;;;;;;;;;;5016952;28;20030;-71
2022/11/30 05:18:37;;;;;;;146.13;46.53;;;;;;;;;;5018805;28;20041;-71
2022/11/30 05:21:03;;;;;;;164.30;44.13;;;;;;;;;;5005945;28;20129;-72
2022/11/30 05:23:29;;;;;;;149.55;43.83;;;;;;;;;;5039192;28;20037;-72
2022/11/30 05:25:55;;;;;;;189.80;45.50;;;;;;;;;;5024463;28;20033;-72
2022/11/30 05:28:21;;;;;;;181.30;44.88;;;;;;;;;;5023224;28;20037;-72
2022/11/30 05:30:48;;;;;;;178.55;44.95;;;;;;;;;;5026459;28;21038;-71
2022/11/30 05:33:14;;;;;;;153.43;42.67;;;;;;;;;;5026882;28;20060;-71
2022/11/30 05:35:40;;;;;;;160.02;44.30;;;;;;;;;;5024533;28;20033;-72
2022/11/30 05:38:06;;;;;;;195.85;45.13;;;;;;;;;;5023888;28;20091;-71
2022/11/30 05:40:32;;;;;;;217.30;45.45;;;;;;;;;;5026323;28;20033;-72
2022/11/30 05:43:00;;;;;;;193.32;43.60;;;;;;;;;;5025985;28;20041;-71
2022/11/30 05:45:26;;;;;;;214.00;45.53;;;;;;;;;;5023765;28;20370;-70
2022/11/30 05:47:52;;;;;;;202.07;44.03;;;;;;;;;;5027201;28;20072;-70
2022/11/30 05:50:19;;;;;;;178.40;45.22;;;;;;;;;;5028783;28;20490;-71
2022/11/30 05:52:45;;;;;;;242.00;48.90;;;;;;;;;;5022284;28;20045;-71
2022/11/30 05:55:11;;;;;;;220.80;49.42;;;;;;;;;;5022040;28;20121;-70
2022/11/30 05:57:38;;;;;;;194.57;49.25;;;;;;;;;;5025964;28;21540;-71
2022/11/30 06:00:06;;;;;;;212.20;48.95;;;;;;;;;;5023187;28;20102;-71
2022/11/30 06:02:37;;;;;;;205.60;49.08;;;;;;;;;;5027567;28;20132;-71
2022/11/30 06:05:04;;;;;;;207.82;49.53;;;;;;;;;;5025220;28;20764;-71
2022/11/30 06:07:30;;;;;;;212.70;50.33;;;;;;;;;;5027715;28;20128;-71
2022/11/30 06:09:56;;;;;;;201.05;50.80;;;;;;;;;;5028208;28;20029;-71
2022/11/30 06:12:22;;;;;;;177.85;49.40;;;;;;;;;;5014920;28;20090;-72
2022/11/30 06:14:49;;;;;;;165.13;48.90;;;;;;;;;;5027406;28;20104;-71
2022/11/30 06:17:16;;;;;;;176.60;47.63;;;;;;;;;;5020812;28;20080;-71
2022/11/30 06:19:42;;;;;;;184.15;48.55;;;;;;;;;;5020941;28;20030;-72
2022/11/30 06:22:08;;;;;;;187.85;48.22;;;;;;;;;;5024988;28;20048;-71
2022/11/30 06:24:34;;;;;;;184.07;47.88;;;;;;;;;;5019977;28;20180;-71
2022/11/30 06:27:01;;;;;;;191.07;46.83;;;;;;;;;;5023051;28;20064;-71
2022/11/30 06:29:27;;;;;;;187.13;48.47;;;;;;;;;;5002545;28;20048;-71
2022/11/30 06:31:53;;;;;;;188.20;49.50;;;;;;;;;;5037578;28;20034;-71
2022/11/30 06:34:19;;;;;;;174.32;50.72;;;;;;;;;;5034810;28;20033;-71
2022/11/30 06:36:45;;;;;;;206.15;51.83;;;;;;;;;;5021191;28;20058;-70
2022/11/30 06:39:12;;;;;;;178.10;52.60;;;;;;;;;;5021040;28;20034;-71
2022/11/30 06:41:38;;;;;;;198.98;51.67;;;;;;;;;;5023990;28;20029;-70
2022/11/30 06:44:13;;;;;;;207.52;51.70;;;;;;;;;;5005541;28;20133;-70
2022/11/30 06:46:39;;;;;;;191.05;50.30;;;;;;;;;;5024403;28;20040;-70
2022/11/30 06:49:06;;;;;;;227.65;52.38;;;;;;;;;;5021256;28;20032;-72
2022/11/30 06:51:33;;;;;;;195.20;50.80;;;;;;;;;;5032137;28;20478;-70
2022/11/30 06:53:59;;;;;;;207.10;50.35;;;;;;;;;;5023054;28;20401;-71
2022/11/30 06:56:25;;;;;;;197.77;48.42;;;;;;;;;;5033317;28;20064;-71
2022/11/30 06:58:53;;;;;;;184.05;49.10;;;;;;;;;;5016055;28;20038;-71
2022/11/30 07:01:19;;;;;;;224.50;51.45;;;;;;;;;;5029884;28;20036;-71
2022/11/30 07:03:45;;;;;;;203.88;50.72;;;;;;;;;;5017654;28;20064;-71
2022/11/30 07:06:12;;;;;;;220.48;48.90;;;;;;;;;;5019924;28;20445;-71
2022/11/30 07:08:39;;;;;;;196.65;49.50;;;;;;;;;;5026511;28;20108;-71
2022/11/30 07:11:05;;;;;;;201.13;50.00;;;;;;;;;;5028075;28;20037;-71
2022/11/30 07:13:32;;;;;;;231.15;49.78;;;;;;;;;;5023921;28;20032;-71
2022/11/30 07:15:58;;;;;;;195.95;48.47;;;;;;;;;;5019699;28;20025;-70
2022/11/30 07:18:24;;;;;;;187.57;46.90;;;;;;;;;;5026098;28;20033;-71
2022/11/30 07:20:50;;;;;;;197.52;46.00;;;;;;;;;;5022291;28;20321;-70
2022/11/30 07:26:05;;;;;;;197.10;48.15;;;;;;;;;;5004692;28;20045;-70
2022/11/30 07:28:32;;;;;;;193.80;46.85;;;;;;;;;;5022135;28;20024;-70
2022/11/30 07:30:58;;;;;;;149.93;42.15;;;;;;;;;;5028992;28;20017;-70
2022/11/30 07:33:24;;;;;;;168.38;42.38;;;;;;;;;;5041811;28;20051;-70
2022/11/30 07:35:53;;;;;;;179.70;45.85;;;;;;;;;;5030538;28;20044;-70
2022/11/30 07:38:19;;;;;;;179.45;45.50;;;;;;;;;;5028085;28;20030;-70
2022/11/30 07:40:45;;;;;;;198.55;45.67;;;;;;;;;;5025731;28;20112;-70
2022/11/30 07:43:11;;;;;;;166.00;45.88;;;;;;;;;;5029694;28;20132;-70
2022/11/30 07:45:37;;;;;;;170.10;45.42;;;;;;;;;;5023491;28;20034;-70
2022/11/30 07:48:04;;;;;;;171.25;47.83;;;;;;;;;;5020716;28;20033;-69
2022/11/30 07:50:31;;;;;;;178.52;45.67;;;;;;;;;;5028768;28;20060;-70
2022/11/30 07:52:58;;;;;;;167.82;44.17;;;;;;;;;;5021713;28;20030;-71
2022/11/30 07:55:24;;;;;;;180.63;45.22;;;;;;;;;;5038741;28;20406;-71
2022/11/30 07:57:50;;;;;;;231.77;48.80;;;;;;;;;;5026287;28;20501;-71
2022/11/30 08:00:16;;;;;;;196.25;46.80;;;;;;;;;;5032880;28;20027;-71
2022/11/30 08:02:42;;;;;;;203.13;46.30;;;;;;;;;;5025789;28;20111;-71
2022/11/30 08:05:10;;;;;;;223.90;44.53;;;;;;;;;;5019325;28;20042;-72
2022/11/30 08:07:37;;;;;;;235.70;42.35;;;;;;;;;;5016692;28;20453;-71
2022/11/30 08:10:03;;;;;;;203.13;44.35;;;;;;;;;;5025089;28;20037;-72
2022/11/30 08:12:29;;;;;;;164.48;41.78;;;;;;;;;;5023035;28;20398;-71
2022/11/30 08:14:55;;;;;;;174.38;43.33;;;;;;;;;;5019995;28;20026;-71
2022/11/30 08:17:21;;;;;;;171.73;41.33;;;;;;;;;;5003402;28;20080;-72
2022/11/30 08:19:47;;;;;;;174.45;43.00;;;;;;;;;;5018019;28;20029;-71
2022/11/30 08:22:13;;;;;;;168.90;44.17;;;;;;;;;;5039145;28;20033;-71
2022/11/30 08:24:40;;;;;;;211.27;47.65;;;;;;;;;;5026661;28;20037;-71
2022/11/30 08:27:06;;;;;;;169.88;44.65;;;;;;;;;;5025569;28;20091;-71
2022/11/30 08:29:32;;;;;;;203.25;45.83;;;;;;;;;;5024846;28;20490;-70
2022/11/30 08:31:58;;;;;;;182.38;47.63;;;;;;;;;;5025714;28;20120;-71
2022/11/30 08:34:25;;;;;;;208.60;46.38;;;;;;;;;;5019923;28;20048;-71
2022/11/30 08:36:51;;;;;;;210.90;45.35;;;;;;;;;;5020221;28;20033;-71
2022/11/30 08:39:17;;;;;;;163.93;43.40;;;;;;;;;;5041449;28;20091;-70
2022/11/30 08:41:43;;;;;;;199.82;45.05;;;;;;;;;;5023849;28;20030;-71
2022/11/30 08:44:10;;;;;;;171.35;46.83;;;;;;;;;;5026976;28;20064;-71
2022/11/30 08:46:37;;;;;;;159.07;44.10;;;;;;;;;;5029080;28;20113;-70
2022/11/30 08:49:03;;;;;;;168.65;45.95;;;;;;;;;;5015307;28;20034;-72
2022/11/30 08:51:30;;;;;;;151.82;45.05;;;;;;;;;;5015027;28;20022;-71
2022/11/30 08:53:57;;;;;;;179.98;47.47;;;;;;;;;;5039049;28;20037;-71
2022/11/30 08:56:23;;;;;;;165.63;48.95;;;;;;;;;;5027992;28;20036;-71
2022/11/30 08:58:49;;;;;;;157.60;50.00;;;;;;;;;;5027388;28;20033;-72
2022/11/30 09:01:19;;;;;;;155.50;49.33;;;;;;;;;;5027046;28;20048;-72
2022/11/30 09:03:46;;;;;;;155.05;49.40;;;;;;;;;;5011923;28;20040;-71
2022/11/30 09:06:17;;;;;;;142.30;48.75;;;;;;;;;;5004631;28;20132;-71
2022/11/30 09:08:44;;;;;;;146.40;49.83;;;;;;;;;;5017356;28;20034;-72
2022/11/30 09:11:13;;;;;;;180.65;51.15;;;;;;;;;;5008275;28;20025;-72
2022/11/30 09:13:39;;;;;;;147.90;47.70;;;;;;;;;;5023493;28;20034;-72
2022/11/30 09:16:06;;;;;;;147.93;50.40;;;;;;;;;;5021143;28;20057;-71
2022/11/30 09:18:32;;;;;;;160.95;52.45;;;;;;;;;;5022981;28;20040;-72
2022/11/30 09:21:02;;;;;;;138.73;48.85;;;;;;;;;;5027877;28;20037;-71
2022/11/30 09:23:29;;;;;;;147.27;49.95;;;;;;;;;;5024770;28;20509;-71
2022/11/30 09:25:56;;;;;;;123.40;46.45;;;;;;;;;;5025460;28;20505;-72
2022/11/30 09:28:22;;;;;;;127.63;46.75;;;;;;;;;;5023452;28;20440;-71
2022/11/30 09:30:48;;;;;;;133.57;46.70;;;;;;;;;;5026238;28;20029;-72
2022/11/30 09:33:14;;;;;;;106.63;43.35;;;;;;;;;;5026565;28;20136;-72
2022/11/30 09:35:40;;;;;;;96.70;42.88;;;;;;;;;;5017899;28;20034;-71
2022/11/30 09:38:06;;;;;;;109.03;41.50;;;;;;;;;;5017741;28;20057;-72
2022/11/30 09:40:33;;;;;;;96.78;39.63;;;;;;;;;;5013277;28;20091;-71
2022/11/30 09:43:09;;;;;;;98.45;43.13;;;;;;;;;;5036040;28;20067;-71
2022/11/30 09:45:36;;;;;;;92.50;40.47;;;;;;;;;;5025894;28;20033;-71
2022/11/30 09:48:05;;;;;;;101.68;41.13;;;;;;;;;;5022906;28;20072;-72
2022/11/30 09:50:33;;;;;;;94.25;40.38;;;;;;;;;;5023838;28;20156;-71
2022/11/30 09:53:10;;;;;;;99.25;43.28;;;;;;;;;;5026033;28;20052;-72
2022/11/30 09:55:38;;;;;;;92.63;41.15;;;;;;;;;;5007240;28;20065;-71
2022/11/30 09:58:05;;;;;;;88.60;40.83;;;;;;;;;;5027468;28;20052;-71
2022/11/30 10:00:34;;;;;;;94.15;41.45;;;;;;;;;;5019255;28;20096;-71
2022/11/30 10:03:02;;;;;;;85.70;39.45;;;;;;;;;;5028917;28;20025;-71
2022/11/30 10:05:44;;;;;;;81.95;39.38;;;;;;;;;;5029779;28;20032;-71
2022/11/30 10:08:19;;;;;;;94.78;41.70;;;;;;;;;;5030457;28;20088;-71
2022/11/30 10:10:59;;;;;;;82.82;40.55;;;;;;;;;;5030946;28;20102;-71
2022/11/30 10:13:26;;;;;;;79.20;41.13;;;;;;;;;;5008190;28;20121;-71
2022/11/30 10:16:16;;;;;;;82.25;40.30;;;;;;;;;;5029052;28;20100;-71
2022/11/30 10:18:45;;;;;;;81.38;38.95;;;;;;;;;;5018415;28;20037;-71
2022/11/30 10:21:11;;;;;;;74.88;39.08;;;;;;;;;;5009240;28;20041;-71
2022/11/30 10:23:37;;;;;;;65.03;36.38;;;;;;;;;;5030214;28;20029;-71
2022/11/30 10:26:07;;;;;;;67.88;38.22;;;;;;;;;;5024647;28;20029;-70
2022/11/30 10:28:40;;;;;;;63.60;35.28;;;;;;;;;;5026212;28;20024;-71
2022/11/30 10:31:10;;;;;;;63.78;36.22;;;;;;;;;;5028429;28;20030;-71
2022/11/30 10:33:43;;;;;;;65.70;37.47;;;;;;;;;;5027026;28;20120;-71
2022/11/30 10:36:12;;;;;;;65.40;35.63;;;;;;;;;;5029412;28;20033;-71
2022/11/30 10:38:48;;;;;;;63.25;34.97;;;;;;;;;;5029621;28;20032;-71
2022/11/30 10:41:19;;;;;;;67.28;35.88;;;;;;;;;;5022543;28;20040;-71
2022/11/30 10:43:50;;;;;;;57.55;34.13;;;;;;;;;;5029350;28;20124;-71
2022/11/30 10:46:16;;;;;;;;;;;;;;;;;;5024992;28;20041;-71
2022/11/30 10:48:45;;;;;;;60.92;33.42;;;;;;;;;;5007963;28;20004;-71
2022/11/30 10:51:12;;;;;;;58.47;34.92;;;;;;;;;;5021376;28;20099;-71
2022/11/30 10:53:38;;;;;;;52.67;32.47;;;;;;;;;;5022466;28;20035;-71
2022/11/30 10:56:04;;;;;;;56.10;33.90;;;;;;;;;;5004677;28;20039;-71
2022/11/30 10:58:32;;;;;;;60.00;34.60;;;;;;;;;;5030706;28;20056;-71
2022/11/30 11:01:04;;;;;;;57.75;34.28;;;;;;;;;;5024914;28;20029;-71
2022/11/30 11:03:30;;;;;;;52.85;34.33;;;;;;;;;;5028415;28;20087;-71
2022/11/30 11:06:05;;;;;;;53.53;33.45;;;;;;;;;;5023036;28;20064;-71
2022/11/30 11:08:32;;;;;;;57.50;34.97;;;;;;;;;;5023004;28;20030;-71
2022/11/30 11:10:58;;;;;;;57.63;34.15;;;;;;;;;;5021460;28;20030;-70
2022/11/30 11:13:41;;;;;;;60.67;36.42;;;;;;;;;;5027530;28;20033;-72
2022/11/30 11:16:09;;;;;;;51.47;32.00;;;;;;;;;;5027539;28;20026;-71
2022/11/30 11:18:36;;;;;;;62.17;34.58;;;;;;;;;;5030262;28;20029;-72
2022/11/30 11:21:06;;;;;;;58.67;32.58;;;;;;;;;;5007132;28;20045;-72
2022/11/30 11:23:40;;;;;;;57.03;34.13;;;;;;;;;;5027149;28;20411;-71
2022/11/30 11:26:07;;;;;;;55.88;33.13;;;;;;;;;;5026746;28;20182;-72
2022/11/30 11:28:34;;;;;;;54.92;32.40;;;;;;;;;;5026373;28;20017;-72
2022/11/30 11:31:15;;;;;;;52.67;31.65;;;;;;;;;;5028121;28;20509;-71
2022/11/30 11:33:49;;;;;;;52.70;32.65;;;;;;;;;;5028527;28;20104;-72
2022/11/30 11:36:23;;;;;;;55.50;32.50;;;;;;;;;;5016605;28;20080;-72
2022/11/30 11:38:49;;;;;;;49.67;30.55;;;;;;;;;;5028184;28;20041;-72
2022/11/30 11:41:18;;;;;;;49.72;31.42;;;;;;;;;;5026846;28;20030;-72
2022/11/30 11:44:03;;;;;;;53.30;31.90;;;;;;;;;;5026229;28;20045;-72
2022/11/30 11:46:35;;;;;;;50.35;31.83;;;;;;;;;;5026100;28;20052;-72
2022/11/30 11:49:03;;;;;;;54.00;33.05;;;;;;;;;;5027603;28;20036;-72
2022/11/30 11:51:32;;;;;;;50.80;32.10;;;;;;;;;;5026468;28;20025;-72
2022/11/30 11:54:02;;;;;;;52.40;32.80;;;;;;;;;;5027189;28;20029;-72
2022/11/30 11:56:33;;;;;;;56.90;33.42;;;;;;;;;;5012517;28;20124;-72
2022/11/30 11:59:10;;;;;;;56.80;34.10;;;;;;;;;;5023791;28;20075;-72
2022/11/30 12:01:40;;;;;;;52.63;33.38;;;;;;;;;;5024856;28;20112;-72
2022/11/30 12:04:25;;;;;;;51.90;32.33;;;;;;;;;;5020413;28;20037;-71
2022/11/30 12:06:53;;;;;;;49.40;32.35;;;;;;;;;;5014954;28;20440;-73
2022/11/30 12:09:24;;;;;;;48.28;31.42;;;;;;;;;;5023902;28;20021;-72
2022/11/30 12:11:50;;;;;;;47.40;30.00;;;;;;;;;;5039617;28;20084;-71
2022/11/30 12:14:17;;;;;;;49.67;31.63;;;;;;;;;;5027412;28;20112;-71
2022/11/30 12:17:04;;;;;;;52.78;32.55;;;;;;;;;;5027224;28;20131;-73
2022/11/30 12:19:42;;;;;;;51.78;31.70;;;;;;;;;;5022383;28;20021;-72
2022/11/30 12:22:28;;;;;;;47.17;29.65;;;;;;;;;;5006723;28;20030;-72
2022/11/30 12:25:15;;;;;;;41.25;27.58;;;;;;;;;;5012140;28;20036;-72
2022/11/30 12:28:00;;;;;;;45.38;27.65;;;;;;;;;;5023535;28;20025;-72
2022/11/30 12:30:32;;;;;;;41.05;28.23;;;;;;;;;;5027799;28;20021;-72
2022/11/30 12:33:17;;;;;;;43.25;27.85;;;;;;;;;;5021189;28;20032;-73
2022/11/30 12:35:43;;;;;;;42.22;27.80;;;;;;;;;;5023493;28;20113;-70
2022/11/30 12:38:12;;;;;;;37.05;25.73;;;;;;;;;;5022077;28;20151;-73
2022/11/30 12:40:46;;;;;;;41.58;27.48;;;;;;;;;;5019901;28;20112;-73
2022/11/30 12:43:17;;;;;;;43.80;28.95;;;;;;;;;;5024549;28;20033;-73
2022/11/30 12:45:44;;;;;;;46.08;28.77;;;;;;;;;;5028264;28;20589;-73
2022/11/30 12:48:19;;;;;;;48.25;30.20;;;;;;;;;;5017747;28;20108;-73
2022/11/30 12:50:50;;;;;;;41.97;26.85;;;;;;;;;;5023195;28;20137;-72
2022/11/30 12:53:20;;;;;;;42.35;28.70;;;;;;;;;;5024097;28;20037;-72
2022/11/30 12:55:55;;;;;;;41.00;27.10;;;;;;;;;;5027931;28;20033;-73
2022/11/30 12:58:28;;;;;;;39.63;26.83;;;;;;;;;;5020636;28;20512;-73
2022/11/30 13:01:13;;;;;;;35.25;24.83;;;;;;;;;;5018994;28;20038;-72
2022/11/30 13:03:56;;;;;;;38.35;24.70;;;;;;;;;;5014939;28;20048;-72
2022/11/30 13:06:34;;;;;;;36.17;23.33;;;;;;;;;;5023681;28;20161;-72
2022/11/30 13:09:10;;;;;;;37.00;24.30;;;;;;;;;;5020029;28;20109;-73
2022/11/30 13:11:41;;;;;;;38.03;24.60;;;;;;;;;;5025908;28;20116;-72
2022/11/30 13:14:12;;;;;;;39.88;26.20;;;;;;;;;;5023435;28;20176;-69
2022/11/30 13:16:39;;;;;;;38.15;25.38;;;;;;;;;;5023451;28;20040;-72
2022/11/30 13:19:35;;;;;;;39.25;25.63;;;;;;;;;;5025771;28;20041;-73
2022/11/30 13:22:04;;;;;;;35.13;22.98;;;;;;;;;;5019439;28;20049;-72
2022/11/30 13:24:36;;;;;;;40.70;24.80;;;;;;;;;;5022924;28;20193;-73
2022/11/30 13:27:15;;;;;;;38.55;24.25;;;;;;;;;;5025539;28;20510;-70
2022/11/30 13:29:47;;;;;;;38.08;24.17;;;;;;;;;;5021235;28;20029;-72
2022/11/30 13:32:16;;;;;;;39.88;25.27;;;;;;;;;;5012394;28;20374;-72
2022/11/30 13:34:43;;;;;;;41.75;24.35;;;;;;;;;;5026938;28;20049;-72
2022/11/30 13:37:11;;;;;;;38.30;24.13;;;;;;;;;;5027744;28;20029;-73
2022/11/30 13:39:40;;;;;;;36.00;22.75;;;;;;;;;;5030567;28;20072;-72
2022/11/30 13:42:06;;;;;;;36.97;22.20;;;;;;;;;;5029824;28;20104;-72
2022/11/30 13:44:32;;;;;;;39.65;21.67;;;;;;;;;;5029536;28;20163;-71
2022/11/30 13:47:03;;;;;;;36.97;22.80;;;;;;;;;;5040194;28;20037;-72
2022/11/30 13:49:29;;;;;;;;;;;;;;;;;;5026344;28;20031;-71
2022/11/30 13:51:56;;;;;;;37.03;23.00;;;;;;;;;;5025318;28;19916;-71
2022/11/30 13:54:37;;;;;;;34.30;21.88;;;;;;;;;;5029834;28;20029;-71
2022/11/30 13:57:24;;;;;;;36.25;22.63;;;;;;;;;;5036238;28;20052;-71
2022/11/30 13:59:54;;;;;;;38.53;22.35;;;;;;;;;;5003238;28;20064;-71
2022/11/30 14:02:40;;;;;;;39.13;24.48;;;;;;;;;;5020474;28;20169;-71
2022/11/30 14:05:19;;;;;;;38.65;24.08;;;;;;;;;;5021573;28;21374;-71
2022/11/30 14:07:51;;;;;;;40.58;25.35;;;;;;;;;;5023708;28;20478;-71
2022/11/30 14:10:29;;;;;;;40.15;24.60;;;;;;;;;;5022795;28;20053;-70
2022/11/30 14:13:25;;;;;;;40.08;25.10;;;;;;;;;;5023973;28;20048;-71
2022/11/30 14:15:53;;;;;;;38.47;23.60;;;;;;;;;;5023140;28;20021;-70
2022/11/30 14:18:20;;;;;;;38.03;25.13;;;;;;;;;;5028192;28;20099;-72
2022/11/30 14:21:12;;;;;;;38.15;23.40;;;;;;;;;;5018280;28;20040;-70
2022/11/30 14:23:38;;;;;;;37.33;23.65;;;;;;;;;;5047219;28;20029;-71